createdAt,value
2023-04-18T00:15:01.540Z,9.60
2023-04-18T00:45:05.532Z,13.05
2023-04-18T01:15:09.144Z,12.18
2023-04-18T01:45:12.725Z,13.60
2023-04-18T02:15:15.776Z,16.35
2023-04-18T02:45:18.919Z,16.90
2023-04-18T03:15:22.138Z,15.60
2023-04-18T03:45:25.258Z,20.65
2023-04-18T04:15:28.465Z,22.42
2023-04-18T04:45:31.533Z,19.85
2023-04-18T05:15:34.506Z,21.00
2023-04-18T05:45:37.536Z,24.75
2023-04-18T06:15:40.589Z,25.08
2023-04-18T06:45:44.135Z,14.35
2023-04-18T07:15:47.123Z,12.13
2023-04-18T07:45:50.259Z,14.07
2023-04-18T08:15:53.326Z,10.60
2023-04-18T08:45:58.411Z,12.65
2023-04-18T09:16:01.522Z,11.65
2023-04-18T09:46:05.252Z,16.52
2023-04-18T10:16:08.635Z,12.38
2023-04-18T10:46:23.881Z,12.13
2023-04-18T11:16:33.837Z,9.00
2023-04-18T11:46:40.414Z,6.68
2023-04-18T12:16:43.355Z,7.53
2023-04-18T12:46:46.436Z,8.75
2023-04-18T13:16:49.616Z,11.15
2023-04-18T13:46:52.990Z,10.63
2023-04-18T14:16:57.037Z,10.60
2023-04-18T14:47:00.147Z,12.00
2023-04-18T15:17:04.822Z,10.70
2023-04-18T15:47:07.825Z,11.07
2023-04-18T16:17:10.970Z,11.55
2023-04-18T16:47:16.136Z,9.85
2023-04-18T17:17:19.121Z,7.47
2023-04-18T17:47:22.122Z,7.43
2023-04-18T18:17:25.163Z,8.15
2023-04-18T18:47:28.125Z,9.05
2023-04-18T19:17:31.148Z,8.93
2023-04-18T19:47:34.238Z,10.23
2023-04-18T20:17:37.261Z,10.70
2023-04-18T20:47:41.267Z,11.48
2023-04-18T21:17:44.609Z,9.27
2023-04-18T21:47:47.632Z,8.32
2023-04-18T22:17:50.737Z,8.13
2023-04-18T22:47:53.839Z,7.75
2023-04-18T23:17:56.920Z,7.13
2023-04-18T23:48:00.359Z,7.43
